Time;durP1;ratioP1;P1;durP2;ratioP2;P2;SDS_P1;SDS_P2;PMS_P1;PMS_P2;Temp;Humidity;BMP_temperature;BMP_pressure;BME280_temperature;BME280_humidity;BME280_pressure;Samples;Min_cycle;Max_cycle;Signal;HPM_P1;HPM_P2
2022/10/31 00:00:07;;;;;;;0.10;0.10;;;;;;;11.20;100.00;97053.63;4944515;28;20061;-75
2022/10/31 00:02:59;;;;;;;0.10;0.10;;;;;;;11.18;100.00;97045.84;4945441;28;20042;-74
2022/10/31 00:05:47;;;;;;;0.10;0.10;;;;;;;11.18;100.00;97047.72;4946001;28;20047;-76
2022/10/31 00:08:34;;;;;;;0.10;0.10;;;;;;;11.16;100.00;97050.63;4946186;28;20057;-75
2022/10/31 00:11:20;;;;;;;0.10;0.10;;;;;;;11.06;100.00;97047.75;4945180;28;20057;-75
2022/10/31 00:14:06;;;;;;;0.30;0.20;;;;;;;10.99;100.00;97047.88;4943360;28;20796;-75
2022/10/31 00:16:52;;;;;;;0.10;0.10;;;;;;;11.01;100.00;97037.75;4944646;28;20539;-75
2022/10/31 00:19:37;;;;;;;0.10;0.10;;;;;;;10.90;100.00;97043.97;4947211;28;20054;-75
2022/10/31 00:22:23;;;;;;;0.10;0.10;;;;;;;10.95;100.00;97044.03;4945098;28;20047;-75
2022/10/31 00:25:09;;;;;;;0.13;0.13;;;;;;;10.95;100.00;97048.59;4946631;28;20561;-75
2022/10/31 00:27:55;;;;;;;0.10;0.10;;;;;;;10.83;100.00;97035.25;4949493;28;20043;-75
2022/10/31 00:30:41;;;;;;;0.10;0.10;;;;;;;10.72;100.00;97042.22;4945983;28;20105;-75
2022/10/31 00:33:28;;;;;;;0.10;0.10;;;;;;;10.75;100.00;97038.28;4929465;28;20047;-76
2022/10/31 00:36:16;;;;;;;0.10;0.10;;;;;;;10.74;100.00;97034.78;4946801;28;20047;-76
2022/10/31 00:39:02;;;;;;;0.10;0.10;;;;;;;10.81;100.00;97037.31;4945577;28;20463;-76
2022/10/31 00:41:48;;;;;;;0.15;0.15;;;;;;;10.91;100.00;97034.06;4941847;28;20253;-75
2022/10/31 00:44:34;;;;;;;0.10;0.10;;;;;;;10.96;100.00;97028.78;4933473;28;20120;-76
2022/10/31 00:47:20;;;;;;;0.10;0.10;;;;;;;11.01;100.00;97028.91;4944646;28;20725;-75
2022/10/31 00:50:07;;;;;;;0.10;0.10;;;;;;;11.02;100.00;97033.19;4950329;28;20042;-76
2022/10/31 00:52:53;;;;;;;0.10;0.10;;;;;;;11.01;100.00;97024.34;4950428;28;20070;-75
2022/10/31 00:55:39;;;;;;;0.10;0.10;;;;;;;10.97;100.00;97019.69;4931519;28;20049;-75
2022/10/31 00:58:24;;;;;;;0.10;0.10;;;;;;;10.95;100.00;97036.00;4946585;28;20243;-76
2022/10/31 01:01:10;;;;;;;0.20;0.20;;;;;;;10.83;100.00;97032.56;4924136;28;20134;-76
2022/10/31 01:03:56;;;;;;;0.10;0.10;;;;;;;10.83;100.00;97035.25;4932638;28;20050;-75
2022/10/31 01:06:42;;;;;;;0.10;0.10;;;;;;;10.82;100.00;97039.78;4949509;28;20051;-76
2022/10/31 01:09:28;;;;;;;0.10;0.10;;;;;;;10.85;100.00;97047.31;4947668;28;20121;-76
2022/10/31 01:12:14;;;;;;;0.10;0.10;;;;;;;10.88;100.00;97046.03;4949805;28;20042;-75
2022/10/31 01:14:59;;;;;;;0.40;0.20;;;;;;;10.86;100.00;97048.13;4931771;28;20212;-75
2022/10/31 01:17:46;;;;;;;0.10;0.10;;;;;;;10.81;100.00;97045.34;4947093;28;20261;-76
2022/10/31 01:20:32;;;;;;;0.10;0.10;;;;;;;10.74;100.00;97045.50;4950515;28;20878;-75
2022/10/31 01:23:20;;;;;;;0.10;0.10;;;;;;;10.66;100.00;97043.19;4933858;28;20043;-75
2022/10/31 01:26:13;;;;;;;0.10;0.10;;;;;;;10.71;100.00;97037.91;4947052;28;20059;-76
2022/10/31 01:29:04;;;;;;;0.10;0.10;;;;;;;10.74;100.00;97045.50;4934485;28;20070;-76
2022/10/31 01:31:49;;;;;;;0.10;0.10;;;;;;;10.71;100.00;97032.56;4945718;28;20141;-75
2022/10/31 01:34:35;;;;;;;0.10;0.10;;;;;;;10.76;100.00;97043.38;4946974;28;20379;-76
2022/10/31 01:37:21;;;;;;;0.20;0.10;;;;;;;10.74;100.00;97050.00;4935030;28;20047;-76
2022/10/31 01:40:08;;;;;;;0.10;0.10;;;;;;;10.72;100.00;97047.56;4948376;28;20075;-76
2022/10/31 01:42:54;;;;;;;0.08;0.08;;;;;;;10.76;100.00;97054.09;4932926;28;20636;-75
2022/10/31 01:45:44;;;;;;;0.10;0.10;;;;;;;10.73;100.00;97059.91;4946728;28;20091;-75
2022/10/31 01:48:31;;;;;;;0.10;0.10;;;;;;;10.74;100.00;97042.81;4934863;28;20529;-76
2022/10/31 01:51:20;;;;;;;0.10;0.10;;;;;;;10.73;100.00;97035.81;4948351;28;20038;-77
2022/10/31 01:54:11;;;;;;;0.10;0.10;;;;;;;10.80;100.00;97033.81;4949446;28;20435;-77
2022/10/31 01:56:58;;;;;;;0.10;0.10;;;;;;;10.69;100.00;97040.03;4949832;28;20557;-76
2022/10/31 01:59:49;;;;;;;0.10;0.10;;;;;;;10.66;100.00;97023.59;4948164;28;20122;-77
2022/10/31 02:02:35;;;;;;;0.17;0.17;;;;;;;10.71;100.00;97029.06;4938389;28;20098;-77
2022/10/31 02:05:26;;;;;;;0.10;0.10;;;;;;;10.75;100.00;97019.53;4948066;28;20050;-76
2022/10/31 02:08:22;;;;;;;0.10;0.10;;;;;;;10.76;100.00;97018.47;4946500;28;20135;-76
2022/10/31 02:11:10;;;;;;;0.20;0.13;;;;;;;10.73;100.00;97018.94;4930886;28;20042;-76
2022/10/31 02:13:59;;;;;;;0.00;0.00;;;;;;;10.72;100.00;97025.34;4947692;28;20046;-77
2022/10/31 02:16:45;;;;;;;0.20;0.10;;;;;;;10.69;100.00;97026.63;4931869;28;20761;-77
2022/10/31 02:19:40;;;;;;;0.10;0.10;;;;;;;10.63;100.00;97024.09;4945684;28;20253;-76
2022/10/31 02:22:28;;;;;;;0.10;0.10;;;;;;;10.56;100.00;97006.28;4916527;28;20879;-75
2022/10/31 02:25:57;;;;;;;0.10;0.10;;;;;;;10.62;100.00;97009.06;4936055;28;20061;-76
2022/10/31 02:28:56;;;;;;;0.10;0.10;;;;;;;10.61;100.00;97013.63;4939383;28;20422;-76
2022/10/31 02:31:51;;;;;;;0.10;0.10;;;;;;;10.57;100.00;97007.91;4949534;28;20135;-77
2022/10/31 02:34:57;;;;;;;0.10;0.10;;;;;;;10.62;100.00;97009.88;4948987;28;20070;-77
2022/10/31 02:38:01;;;;;;;0.10;0.10;;;;;;;10.67;100.00;97012.69;4947343;28;20042;-76
2022/10/31 02:41:05;;;;;;;0.10;0.10;;;;;;;10.77;100.00;97012.06;4936728;28;20181;-77
2022/10/31 02:44:21;;;;;;;0.10;0.10;;;;;;;10.88;100.00;97008.53;4949018;28;20043;-77
2022/10/31 02:47:19;;;;;;;0.20;0.20;;;;;;;10.85;100.00;97009.84;4929901;28;20072;-77
2022/10/31 02:50:26;;;;;;;0.20;0.20;;;;;;;10.85;100.00;97012.53;4946227;28;20067;-77
2022/10/31 02:53:16;;;;;;;0.10;0.10;;;;;;;10.79;100.00;97013.47;4936310;28;20046;-77
2022/10/31 02:56:12;;;;;;;0.10;0.10;;;;;;;10.79;100.00;97008.09;4947529;28;20070;-76
2022/10/31 02:59:03;;;;;;;0.10;0.10;;;;;;;10.74;100.00;96997.31;4932314;28;20046;-76
2022/10/31 03:02:11;;;;;;;0.10;0.10;;;;;;;10.80;100.00;97003.56;4927393;28;20051;-77
2022/10/31 03:05:07;;;;;;;0.10;0.10;;;;;;;10.80;100.00;97004.38;4919408;28;20527;-76
2022/10/31 03:07:59;;;;;;;0.10;0.10;;;;;;;10.86;100.00;97005.31;4949107;28;20078;-76
2022/10/31 03:10:56;;;;;;;0.13;0.10;;;;;;;10.86;100.00;97000.75;4944342;28;20701;-76
2022/10/31 03:13:47;;;;;;;0.10;0.10;;;;;;;10.90;100.00;96989.59;4945857;28;20050;-76
2022/10/31 03:16:55;;;;;;;0.20;0.20;;;;;;;10.96;100.00;97004.69;4929287;28;20408;-75
2022/10/31 03:19:45;;;;;;;0.10;0.10;;;;;;;10.96;100.00;96999.34;4944689;28;20158;-75
2022/10/31 03:22:34;;;;;;;0.10;0.10;;;;;;;10.95;100.00;96997.72;4934690;28;20074;-76
2022/10/31 03:25:19;;;;;;;0.13;0.13;;;;;;;10.97;100.00;96995.59;4948685;28;20178;-75
2022/10/31 03:28:07;;;;;;;0.20;0.15;;;;;;;10.98;100.00;96991.91;4932484;28;20047;-76
2022/10/31 03:30:54;;;;;;;0.20;0.20;;;;;;;10.99;100.00;96993.53;4946907;28;20031;-75
2022/10/31 03:33:42;;;;;;;0.10;0.10;;;;;;;10.97;100.00;96992.91;4932637;28;20050;-75
2022/10/31 03:36:32;;;;;;;0.10;0.10;;;;;;;10.93;100.00;96994.47;4928634;28;20066;-76
2022/10/31 03:39:21;;;;;;;0.10;0.10;;;;;;;10.92;100.00;97001.69;4932548;28;20536;-75
2022/10/31 03:42:14;;;;;;;0.10;0.10;;;;;;;10.87;100.00;96999.72;4933138;28;20061;-75
2022/10/31 03:45:17;;;;;;;0.10;0.10;;;;;;;10.84;100.00;97002.88;4946412;28;20503;-76
2022/10/31 03:48:03;;;;;;;0.10;0.10;;;;;;;10.84;100.00;96996.69;4933622;28;20516;-75
2022/10/31 03:51:18;;;;;;;0.10;0.10;;;;;;;10.81;100.00;96999.84;4933461;28;20095;-75
2022/10/31 03:54:40;;;;;;;0.13;0.13;;;;;;;10.71;100.00;97002.31;4943266;28;20531;-76
2022/10/31 03:57:43;;;;;;;0.20;0.20;;;;;;;10.60;100.00;97001.28;4932728;28;20249;-75
2022/10/31 04:00:32;;;;;;;0.17;0.10;;;;;;;10.50;100.00;97011.75;4941106;28;20051;-75
2022/10/31 04:03:26;;;;;;;0.20;0.10;;;;;;;10.41;100.00;97013.97;4950289;28;20043;-75
2022/10/31 04:06:18;;;;;;;0.10;0.10;;;;;;;10.46;100.00;97008.75;4933317;28;20051;-75
2022/10/31 04:09:06;;;;;;;0.20;0.10;;;;;;;10.42;100.00;97006.75;4932660;28;20370;-76
2022/10/31 04:11:56;;;;;;;0.10;0.10;;;;;;;10.44;100.00;97018.06;4950348;28;20428;-75
2022/10/31 04:15:12;;;;;;;0.10;0.10;;;;;;;10.40;100.00;97011.53;4929737;28;20039;-76
2022/10/31 04:18:01;;;;;;;0.10;0.10;;;;;;;10.43;100.00;97008.41;4932458;28;20160;-76
2022/10/31 04:20:50;;;;;;;0.10;0.10;;;;;;;10.50;100.00;97011.75;4944261;28;20142;-76
2022/10/31 04:23:37;;;;;;;0.10;0.10;;;;;;;10.57;100.00;97007.09;4936887;28;20043;-76
2022/10/31 04:26:43;;;;;;;0.10;0.10;;;;;;;10.62;100.00;97001.88;4948646;28;20392;-76
2022/10/31 04:29:28;;;;;;;0.10;0.10;;;;;;;10.53;100.00;97005.94;4951133;28;20268;-75
2022/10/31 04:32:15;;;;;;;0.10;0.10;;;;;;;10.42;100.00;97004.09;4946799;28;20153;-76
2022/10/31 04:35:01;;;;;;;0.10;0.10;;;;;;;10.29;100.00;97000.63;4934819;28;20043;-76
2022/10/31 04:37:48;;;;;;;0.10;0.10;;;;;;;10.22;100.00;96999.91;4949742;28;20105;-76
2022/10/31 04:40:34;;;;;;;0.10;0.10;;;;;;;10.28;100.00;97006.22;4933996;28;20086;-76
2022/10/31 04:43:43;;;;;;;0.20;0.20;;;;;;;10.32;100.00;97005.50;4947877;28;20050;-74
2022/10/31 04:46:29;;;;;;;0.10;0.10;;;;;;;10.37;100.00;97001.31;4949036;28;20053;-76
2022/10/31 04:49:16;;;;;;;0.10;0.10;;;;;;;10.36;100.00;97003.19;4931848;28;20564;-75
2022/10/31 04:52:03;;;;;;;0.10;0.10;;;;;;;10.31;100.00;96993.16;4926053;28;20134;-75
2022/10/31 04:54:49;;;;;;;0.15;0.10;;;;;;;10.28;100.00;96998.19;4950826;28;20288;-77
2022/10/31 04:58:13;;;;;;;0.20;0.20;;;;;;;10.20;100.00;97004.66;4950773;28;20043;-75
2022/10/31 05:00:59;;;;;;;0.10;0.10;;;;;;;10.17;100.00;96991.75;4943988;28;20077;-76
2022/10/31 05:03:45;;;;;;;0.10;0.10;;;;;;;10.03;100.00;97001.03;4934129;28;20039;-75
2022/10/31 05:06:33;;;;;;;0.10;0.10;;;;;;;9.91;100.00;97000.22;4950932;28;20066;-76
2022/10/31 05:09:19;;;;;;;0.10;0.10;;;;;;;9.89;100.00;96992.44;4942129;28;20456;-75
2022/10/31 05:12:05;;;;;;;0.10;0.10;;;;;;;9.88;100.00;96990.78;4940553;28;20639;-76
2022/10/31 05:15:09;;;;;;;0.10;0.10;;;;;;;9.76;100.00;96980.09;4954169;28;20042;-76
2022/10/31 05:18:14;;;;;;;0.10;0.10;;;;;;;9.80;100.00;96977.75;4955341;28;20597;-76
2022/10/31 05:21:02;;;;;;;0.10;0.10;;;;;;;9.81;100.00;96975.94;4954450;28;20050;-77
2022/10/31 05:23:56;;;;;;;0.10;0.10;;;;;;;9.88;100.00;96971.25;4949158;28;20109;-74
2022/10/31 05:26:43;;;;;;;0.10;0.10;;;;;;;10.02;100.00;96970.81;4935503;28;20357;-76
2022/10/31 05:29:33;;;;;;;0.10;0.10;;;;;;;10.09;100.00;96975.22;4939961;28;20077;-76
2022/10/31 05:32:20;;;;;;;0.10;0.10;;;;;;;10.09;100.00;96977.91;4923694;28;20373;-76
2022/10/31 05:35:31;;;;;;;0.10;0.10;;;;;;;10.05;100.00;96973.03;4916181;28;20062;-76
2022/10/31 05:38:35;;;;;;;0.30;0.10;;;;;;;10.05;100.00;96977.56;4938699;28;20057;-76
2022/10/31 05:41:30;;;;;;;0.10;0.10;;;;;;;9.84;100.00;96981.63;4937505;28;20431;-75
2022/10/31 05:44:32;;;;;;;0.10;0.10;;;;;;;9.72;100.00;96984.25;4938966;28;20370;-76
2022/10/31 05:47:38;;;;;;;0.13;0.10;;;;;;;9.74;100.00;96982.19;4951886;28;20054;-77
2022/10/31 05:50:49;;;;;;;0.10;0.10;;;;;;;9.70;100.00;96980.19;4936634;28;20050;-77
2022/10/31 05:53:35;;;;;;;0.10;0.10;;;;;;;9.65;100.00;96982.72;4935134;28;20133;-76
2022/10/31 05:56:21;;;;;;;0.10;0.10;;;;;;;9.62;100.00;96981.34;4937224;28;20443;-76
2022/10/31 05:59:08;;;;;;;0.10;0.10;;;;;;;9.56;100.00;96976.09;4949377;28;20105;-79
2022/10/31 06:01:54;;;;;;;0.10;0.10;;;;;;;9.55;100.00;96972.63;4946072;28;20075;-78
2022/10/31 06:05:16;;;;;;;0.10;0.10;;;;;;;9.46;100.00;96960.63;4953211;28;20042;-79
2022/10/31 06:08:02;;;;;;;0.10;0.10;;;;;;;9.53;100.00;96957.88;4937969;28;20059;-76
2022/10/31 06:10:49;;;;;;;0.20;0.20;;;;;;;9.57;100.00;96969.72;4938563;28;20047;-78
2022/10/31 06:13:41;;;;;;;0.10;0.10;;;;;;;9.59;100.00;96952.41;4952735;28;20047;-78
2022/10/31 06:16:35;;;;;;;0.10;0.10;;;;;;;9.67;100.00;96948.59;4928895;28;20088;-78
2022/10/31 06:19:40;;;;;;;0.20;0.20;;;;;;;9.75;100.00;96945.59;4939613;28;20154;-78
2022/10/31 06:22:28;;;;;;;0.15;0.13;;;;;;;9.82;100.00;96943.63;4940894;28;20038;-78
2022/10/31 06:25:14;;;;;;;0.10;0.10;;;;;;;9.82;100.00;96932.13;4940142;28;20094;-78
2022/10/31 06:28:05;;;;;;;0.10;0.10;;;;;;;9.80;100.00;96950.22;4955958;28;20043;-77
2022/10/31 06:31:05;;;;;;;0.10;0.10;;;;;;;9.72;100.00;96962.88;4942356;28;20043;-78
2022/10/31 06:33:51;;;;;;;0.10;0.10;;;;;;;9.66;100.00;96963.81;4940829;28;20407;-78
2022/10/31 06:36:37;;;;;;;0.10;0.10;;;;;;;9.60;100.00;96964.72;4944391;28;20065;-78
2022/10/31 06:39:24;;;;;;;0.10;0.10;;;;;;;9.63;100.00;96963.44;4942590;28;20048;-78
2022/10/31 06:42:10;;;;;;;0.15;0.15;;;;;;;9.66;100.00;96966.50;4942554;28;20089;-78
2022/10/31 06:44:56;;;;;;;0.20;0.10;;;;;;;9.81;100.00;96973.25;4938968;28;20451;-77
2022/10/31 06:48:20;;;;;;;0.10;0.10;;;;;;;9.99;100.00;96968.59;4932089;28;20047;-76
2022/10/31 06:51:35;;;;;;;0.10;0.10;;;;;;;10.12;100.00;96967.56;4905507;28;20137;-77
2022/10/31 06:54:21;;;;;;;0.20;0.20;;;;;;;10.11;100.00;96968.59;4939768;28;20051;-78
2022/10/31 06:57:07;;;;;;;0.25;0.20;;;;;;;10.02;100.00;96967.31;4952660;28;20047;-78
2022/10/31 06:59:53;;;;;;;0.10;0.10;;;;;;;9.97;100.00;96977.91;4954322;28;20073;-77
2022/10/31 07:03:03;;;;;;;0.13;0.10;;;;;;;9.87;100.00;96980.34;4937092;28;20621;-78
2022/10/31 07:05:50;;;;;;;0.10;0.10;;;;;;;9.83;100.00;96973.84;4938360;28;20122;-78
2022/10/31 07:08:35;;;;;;;0.10;0.10;;;;;;;9.88;100.00;96973.94;4938669;28;20467;-78
2022/10/31 07:11:21;;;;;;;0.10;0.10;;;;;;;9.98;100.00;96976.88;4947306;28;20047;-78
2022/10/31 07:14:07;;;;;;;0.10;0.10;;;;;;;10.08;100.00;96982.44;4939884;28;20046;-78
2022/10/31 07:16:53;;;;;;;0.10;0.10;;;;;;;10.18;100.00;96974.63;4946381;28;20058;-78
2022/10/31 07:19:44;;;;;;;0.10;0.10;;;;;;;10.27;100.00;96970.63;4943497;28;20046;-79
2022/10/31 07:22:34;;;;;;;0.10;0.10;;;;;;;10.38;100.00;96977.00;4957059;28;20121;-78
2022/10/31 07:25:20;;;;;;;0.10;0.10;;;;;;;10.50;100.00;96979.66;4955599;28;20070;-78
2022/10/31 07:28:48;;;;;;;0.10;0.10;;;;;;;10.72;100.00;96977.16;4952148;28;20059;-78
2022/10/31 07:31:36;;;;;;;0.10;0.10;;;;;;;10.83;100.00;96969.13;4939751;28;20077;-78
2022/10/31 07:34:28;;;;;;;0.10;0.10;;;;;;;11.01;100.00;96972.66;4938448;28;20039;-78
2022/10/31 07:37:32;;;;;;;0.10;0.10;;;;;;;11.20;100.00;96974.09;4940954;28;20050;-78
2022/10/31 07:40:19;;;;;;;0.15;0.10;;;;;;;11.34;100.00;96970.06;4955380;28;20039;-78
2022/10/31 07:43:08;;;;;;;0.13;0.10;;;;;;;11.44;100.00;96969.47;4953060;28;20078;-76
2022/10/31 07:46:16;;;;;;;0.10;0.10;;;;;;;11.57;100.00;96971.00;4949916;28;20206;-77
2022/10/31 07:49:21;;;;;;;0.10;0.10;;;;;;;11.70;100.00;96970.69;4947877;28;20069;-77
2022/10/31 07:52:26;;;;;;;0.10;0.10;;;;;;;11.77;100.00;96973.22;4945562;28;20046;-77
2022/10/31 07:55:36;;;;;;;0.10;0.10;;;;;;;11.83;100.00;96967.72;4937686;28;20038;-76
2022/10/31 07:58:21;;;;;;;0.10;0.10;;;;;;;11.96;100.00;96961.22;4936973;28;20050;-77
2022/10/31 08:01:07;;;;;;;0.20;0.10;;;;;;;12.07;100.00;96962.19;4940868;28;20069;-77
2022/10/31 08:04:02;;;;;;;0.13;0.13;;;;;;;12.26;100.00;96975.09;4949918;28;20297;-76
2022/10/31 08:07:06;;;;;;;0.10;0.10;;;;;;;12.45;100.00;96975.63;4954442;28;20042;-77
2022/10/31 08:09:55;;;;;;;0.10;0.10;;;;;;;12.62;100.00;96974.78;4940175;28;20070;-76
2022/10/31 08:12:45;;;;;;;0.10;0.10;;;;;;;12.72;100.00;96970.34;4945071;28;20222;-77
2022/10/31 08:15:34;;;;;;;0.10;0.10;;;;;;;12.81;100.00;96973.41;4932627;28;20456;-77
2022/10/31 08:18:21;;;;;;;0.10;0.10;;;;;;;12.92;100.00;96968.94;4956002;28;20066;-77
2022/10/31 08:21:08;;;;;;;0.10;0.10;;;;;;;12.93;100.00;96971.41;4957215;28;20065;-78
2022/10/31 08:23:54;;;;;;;0.13;0.13;;;;;;;13.00;100.00;96968.53;4953782;28;20065;-77
2022/10/31 08:26:44;;;;;;;0.15;0.10;;;;;;;13.14;100.00;96974.31;4942903;28;20046;-77
2022/10/31 08:29:31;;;;;;;0.10;0.10;;;;;;;13.33;100.00;96972.94;4924320;28;20122;-77
2022/10/31 08:32:17;;;;;;;0.10;0.10;;;;;;;13.42;100.00;96974.09;4940617;28;20058;-78
2022/10/31 08:35:11;;;;;;;0.10;0.10;;;;;;;13.56;100.00;96971.84;4956259;28;20518;-78
2022/10/31 08:38:16;;;;;;;0.10;0.10;;;;;;;13.65;100.00;96967.59;4952029;28;20591;-79
2022/10/31 08:41:02;;;;;;;0.10;0.10;;;;;;;13.79;100.00;96968.81;4952942;28;20046;-79
2022/10/31 08:43:48;;;;;;;0.10;0.10;;;;;;;13.96;100.00;96957.09;4942456;28;20050;-79
2022/10/31 08:46:35;;;;;;;0.10;0.10;;;;;;;14.10;100.00;96952.91;4958410;28;20050;-79
2022/10/31 08:49:21;;;;;;;0.05;0.05;;;;;;;14.27;100.00;96950.84;4955862;28;20156;-79
2022/10/31 08:52:07;;;;;;;0.10;0.10;;;;;;;14.39;100.00;96956.84;4941944;28;20263;-80
2022/10/31 08:54:57;;;;;;;0.20;0.20;;;;;;;14.40;100.00;96942.34;4944114;28;20050;-79
2022/10/31 08:58:03;;;;;;;0.10;0.10;;;;;;;14.47;100.00;96951.03;4957856;28;20058;-80
2022/10/31 09:00:59;;;;;;;0.10;0.10;;;;;;;14.63;100.00;96946.53;4952615;28;20054;-78
2022/10/31 09:03:45;;;;;;;0.10;0.10;;;;;;;14.76;100.00;96932.56;4940604;28;20050;-80
2022/10/31 09:06:31;;;;;;;0.05;0.05;;;;;;;14.92;100.00;96933.41;4942893;28;20055;-80
2022/10/31 09:09:19;;;;;;;0.10;0.10;;;;;;;15.15;100.00;96942.13;4942204;28;20558;-80
2022/10/31 09:12:06;;;;;;;0.17;0.10;;;;;;;15.28;100.00;96939.72;4956534;28;20179;-80
2022/10/31 09:15:28;;;;;;;0.10;0.10;;;;;;;15.37;100.00;96931.13;4955432;28;20043;-79
2022/10/31 09:18:49;;;;;;;0.10;0.10;;;;;;;15.46;100.00;96942.97;4956936;28;20106;-80
2022/10/31 09:21:36;;;;;;;0.20;0.20;;;;;;;15.54;100.00;96943.25;4944287;28;20427;-80
2022/10/31 09:24:22;;;;;;;0.10;0.10;;;;;;;15.81;100.00;96939.56;4956751;28;20133;-80
2022/10/31 09:27:08;;;;;;;0.22;0.20;;;;;;;16.05;100.00;96931.72;4952854;28;20698;-79
2022/10/31 09:29:57;;;;;;;0.15;0.15;;;;;;;16.39;100.00;96930.00;4914278;28;20049;-79
2022/10/31 09:32:43;;;;;;;0.20;0.20;;;;;;;16.51;100.00;96920.81;4945883;28;20055;-79
2022/10/31 09:35:30;;;;;;;0.20;0.20;;;;;;;16.86;100.00;96923.41;4956836;28;20043;-79
2022/10/31 09:38:20;;;;;;;0.10;0.10;;;;;;;16.62;100.00;96922.38;4949570;28;20403;-79
2022/10/31 09:41:14;;;;;;;0.20;0.20;;;;;;;16.71;100.00;96920.75;4933267;28;20690;-77
2022/10/31 09:44:07;;;;;;;0.10;0.10;;;;;;;17.13;100.00;96919.50;4945932;28;20525;-77
2022/10/31 09:47:15;;;;;;;0.10;0.10;;;;;;;17.53;100.00;96916.53;4944256;28;20597;-77
2022/10/31 09:50:26;;;;;;;0.10;0.10;;;;;;;17.74;100.00;96919.09;4943853;28;20179;-77
2022/10/31 09:53:40;;;;;;;0.10;0.10;;;;;;;17.73;100.00;96915.59;4936582;28;20669;-77
2022/10/31 09:56:28;;;;;;;0.13;0.13;;;;;;;18.14;100.00;96911.75;4950164;28;20181;-77
2022/10/31 09:59:30;;;;;;;0.20;0.17;;;;;;;18.34;100.00;96903.38;4952223;28;20627;-77
2022/10/31 10:02:43;;;;;;;0.20;0.20;;;;;;;18.41;100.00;96909.28;4960183;28;20054;-77
2022/10/31 10:08:20;;;;;;;0.10;0.10;;;;;;;18.98;100.00;96910.25;4765837;23;20047;-82
2022/10/31 10:11:52;;;;;;;0.20;0.20;;;;;;;19.44;100.00;96898.75;4918873;28;20039;-83
2022/10/31 10:15:01;;;;;;;0.20;0.20;;;;;;;19.46;100.00;96902.00;4930448;28;20608;-81
2022/10/31 10:18:00;;;;;;;0.20;0.20;;;;;;;20.31;98.74;96887.25;4934711;28;20998;-83
2022/10/31 10:20:58;;;;;;;0.10;0.10;;;;;;;20.68;97.92;96894.47;4908666;28;20082;-82
2022/10/31 10:24:12;;;;;;;0.10;0.10;;;;;;;20.59;96.98;96891.66;4939644;28;20261;-82
2022/10/31 10:30:14;;;;;;;0.10;0.10;;;;;;;19.53;99.09;96901.59;4923630;23;20324;-78
2022/10/31 10:33:09;;;;;;;0.10;0.10;;;;;;;19.45;100.00;96897.66;4968661;28;20050;-77
2022/10/31 10:36:00;;;;;;;0.13;0.13;;;;;;;19.55;100.00;96897.50;4972202;28;20047;-79
2022/10/31 10:39:07;;;;;;;0.10;0.10;;;;;;;19.79;99.91;96891.19;4960189;28;20154;-77
2022/10/31 10:48:49;;;;;;;0.10;0.10;;;;;;;19.94;100.00;96883.59;4952135;28;20053;-78
2022/10/31 10:51:58;;;;;;;0.20;0.15;;;;;;;20.20;96.86;96878.50;4952076;28;20042;-78
2022/10/31 10:55:09;;;;;;;0.10;0.10;;;;;;;20.20;98.79;96873.06;4952969;28;20511;-78
2022/10/31 10:58:01;;;;;;;0.20;0.13;;;;;;;20.02;97.10;96876.69;4949675;28;20055;-79
2022/10/31 11:00:49;;;;;;;0.10;0.10;;;;;;;19.67;99.19;96876.16;4952609;28;20499;-78
2022/10/31 11:03:38;;;;;;;0.17;0.10;;;;;;;20.02;100.00;96860.38;4953244;28;20118;-78
2022/10/31 11:06:27;;;;;;;0.20;0.20;;;;;;;20.46;96.54;96864.47;4953955;28;20058;-78
2022/10/31 11:09:16;;;;;;;0.10;0.10;;;;;;;20.47;99.59;96855.22;4953199;28;20122;-78
2022/10/31 11:12:14;;;;;;;0.10;0.10;;;;;;;20.66;95.06;96857.81;4951340;28;20408;-78
2022/10/31 11:15:07;;;;;;;0.20;0.20;;;;;;;21.87;90.25;96845.28;4952940;28;20466;-78
2022/10/31 11:17:55;;;;;;;0.10;0.10;;;;;;;22.04;86.05;96839.91;4956186;28;20051;-78
2022/10/31 11:20:55;;;;;;;0.20;0.20;;;;;;;22.09;86.45;96839.00;4954779;28;20454;-78
2022/10/31 11:23:41;;;;;;;0.10;0.10;;;;;;;22.45;87.82;96830.66;4925703;28;20145;-78
2022/10/31 11:26:27;;;;;;;0.15;0.15;;;;;;;21.87;83.48;96829.72;4954311;28;20217;-79
2022/10/31 11:29:24;;;;;;;0.17;0.17;;;;;;;21.43;88.72;96836.00;4910599;28;20600;-78
2022/10/31 11:32:26;;;;;;;0.10;0.10;;;;;;;21.59;88.68;96822.81;4951182;28;20129;-78
2022/10/31 11:35:18;;;;;;;0.10;0.10;;;;;;;22.00;87.84;96814.41;4952183;28;20038;-78
2022/10/31 11:38:05;;;;;;;0.10;0.10;;;;;;;21.74;87.48;96817.00;4607810;28;10000556;-78
2022/10/31 11:40:59;;;;;;;0.17;0.10;;;;;;;20.62;92.17;96818.75;4609888;28;10000957;-79
2022/10/31 11:43:53;;;;;;;0.10;0.10;;;;;;;20.69;92.86;96809.06;4952199;28;20384;-78
2022/10/31 11:47:02;;;;;;;0.17;0.17;;;;;;;20.38;94.44;96803.44;4949671;28;20578;-78
2022/10/31 11:49:51;;;;;;;0.20;0.10;;;;;;;20.24;95.80;96810.81;4950561;28;20435;-78
2022/10/31 11:52:39;;;;;;;0.08;0.08;;;;;;;20.19;95.20;96800.84;4950527;28;20053;-78
2022/10/31 11:55:35;;;;;;;0.10;0.10;;;;;;;20.67;95.33;96816.72;4948044;28;20125;-78
2022/10/31 11:58:24;;;;;;;0.10;0.10;;;;;;;20.76;94.02;96798.59;4938357;28;20117;-78
2022/10/31 12:01:28;;;;;;;0.10;0.10;;;;;;;21.84;88.64;96794.94;4951021;28;20061;-78
2022/10/31 12:04:13;;;;;;;0.10;0.10;;;;;;;21.40;91.77;96801.25;4950233;28;20053;-78
2022/10/31 12:06:59;;;;;;;0.00;0.00;;;;;;;20.83;94.79;96790.00;4949818;28;20057;-78
2022/10/31 12:09:45;;;;;;;0.10;0.10;;;;;;;20.25;98.16;96783.31;4951763;28;20297;-78
2022/10/31 12:12:37;;;;;;;0.10;0.10;;;;;;;19.99;99.10;96784.91;4950794;28;20043;-78
2022/10/31 12:15:42;;;;;;;0.10;0.10;;;;;;;19.81;100.00;96777.66;4951079;28;20038;-78
2022/10/31 12:18:56;;;;;;;0.10;0.10;;;;;;;19.74;100.00;96773.44;4949776;28;21538;-78
2022/10/31 12:21:59;;;;;;;0.10;0.10;;;;;;;19.44;100.00;96774.72;4950066;28;20558;-78
2022/10/31 12:25:20;;;;;;;0.10;0.10;;;;;;;20.02;100.00;96757.97;4941416;28;20069;-78
2022/10/31 12:28:31;;;;;;;0.20;0.20;;;;;;;19.72;100.00;96761.25;4912616;28;20066;-78
2022/10/31 12:31:32;;;;;;;0.10;0.10;;;;;;;18.92;100.00;96756.88;4940195;28;20062;-78
2022/10/31 12:34:45;;;;;;;0.10;0.10;;;;;;;18.34;100.00;96763.34;4950573;28;20297;-78
2022/10/31 12:37:43;;;;;;;0.10;0.10;;;;;;;18.10;100.00;96757.94;4938781;28;20544;-78
2022/10/31 12:40:40;;;;;;;0.10;0.10;;;;;;;18.42;100.00;96758.38;4948080;28;20093;-78
2022/10/31 12:43:46;;;;;;;0.10;0.10;;;;;;;18.31;100.00;96744.16;4955494;28;20043;-78
2022/10/31 12:47:03;;;;;;;0.10;0.10;;;;;;;18.00;100.00;96725.59;4954208;28;20078;-78
2022/10/31 12:50:07;;;;;;;0.10;0.10;;;;;;;17.87;100.00;96737.09;4957447;28;20054;-78
2022/10/31 12:53:15;;;;;;;0.13;0.10;;;;;;;17.89;100.00;96734.09;4956781;28;20145;-79
2022/10/31 12:56:19;;;;;;;0.10;0.10;;;;;;;17.47;100.00;96720.16;4953980;28;20064;-78
2022/10/31 12:59:33;;;;;;;0.10;0.10;;;;;;;17.24;100.00;96729.84;4953521;28;20046;-78
2022/10/31 13:02:22;;;;;;;0.10;0.10;;;;;;;17.52;100.00;96720.13;4958569;28;20395;-78
2022/10/31 13:05:17;;;;;;;0.10;0.10;;;;;;;17.59;100.00;96718.97;4957080;28;20050;-78
2022/10/31 13:08:17;;;;;;;0.10;0.10;;;;;;;17.72;100.00;96715.63;4958077;28;20052;-79
2022/10/31 13:11:07;;;;;;;0.00;0.00;;;;;;;17.51;100.00;96712.31;4955684;28;20038;-78
2022/10/31 13:14:24;;;;;;;0.15;0.10;;;;;;;17.68;100.00;96701.03;4956928;28;20113;-78
2022/10/31 13:17:22;;;;;;;0.10;0.10;;;;;;;17.44;100.00;96691.00;4956340;28;20423;-78
2022/10/31 13:20:42;;;;;;;0.10;0.10;;;;;;;17.20;100.00;96695.56;4955249;28;20397;-79
2022/10/31 13:23:34;;;;;;;0.10;0.10;;;;;;;17.14;100.00;96691.28;4924262;28;20094;-78
2022/10/31 13:26:22;;;;;;;;;;;;;;;17.05;100.00;96693.00;4957037;28;20467;-79
2022/10/31 13:29:25;;;;;;;0.10;0.10;;;;;;;17.08;100.00;96670.81;4927795;28;20016;-79
2022/10/31 13:32:11;;;;;;;0.10;0.10;;;;;;;17.47;100.00;96665.28;4957314;28;20121;-79
2022/10/31 13:34:59;;;;;;;0.10;0.10;;;;;;;17.38;100.00;96675.09;4954038;28;20043;-79
2022/10/31 13:37:52;;;;;;;0.10;0.10;;;;;;;17.43;100.00;96664.22;4956637;28;20031;-79
2022/10/31 13:40:49;;;;;;;0.10;0.10;;;;;;;17.84;100.00;96661.91;4957337;28;20058;-79
2022/10/31 13:43:57;;;;;;;0.10;0.10;;;;;;;17.72;100.00;96658.78;4957602;28;20546;-79